createdAt,value
2023-04-19T00:14:18.403Z,3.22
2023-04-19T00:17:09.286Z,9.00
2023-04-19T00:54:46.386Z,7.20
2023-04-19T01:03:29.900Z,4.78
2023-04-19T01:05:57.844Z,4.50
2023-04-19T01:08:27.328Z,10.07
2023-04-19T01:10:57.827Z,3.95
2023-04-19T01:13:27.467Z,4.72
2023-04-19T01:15:55.763Z,4.45
2023-04-19T02:02:39.324Z,5.20
2023-04-19T02:05:08.241Z,4.07
2023-04-19T02:48:10.356Z,4.03
2023-04-19T02:50:38.929Z,4.25
2023-04-19T02:53:06.330Z,3.10
2023-04-19T02:55:33.681Z,5.05
2023-04-19T02:58:03.818Z,3.30
2023-04-19T03:00:34.240Z,3.00
2023-04-19T03:03:04.325Z,4.47
2023-04-19T03:05:32.137Z,6.70
2023-04-19T03:08:35.773Z,5.05
2023-04-19T03:11:12.014Z,7.30
2023-04-19T04:44:12.482Z,12.65
2023-04-19T04:47:31.859Z,12.23
2023-04-19T04:50:02.525Z,11.27
2023-04-19T04:52:49.452Z,12.45
2023-04-19T04:55:16.725Z,7.40
2023-04-19T04:57:46.792Z,7.13
2023-04-19T05:00:17.974Z,8.25
2023-04-19T05:02:48.911Z,11.77
2023-04-19T05:05:16.094Z,5.10
2023-04-19T05:07:43.217Z,15.88
2023-04-19T05:10:10.442Z,7.45
2023-04-19T05:12:39.481Z,9.70
2023-04-19T05:20:57.082Z,11.23
2023-04-19T05:26:15.732Z,6.10
2023-04-19T05:28:43.836Z,5.22
2023-04-19T05:31:14.423Z,7.93
2023-04-19T05:33:42.366Z,5.80
2023-04-19T05:39:08.686Z,13.75
2023-04-19T05:41:39.045Z,4.93
2023-04-19T06:14:09.424Z,8.02
2023-04-19T06:16:36.777Z,6.85
2023-04-19T06:19:54.309Z,8.13
2023-04-19T06:22:32.640Z,8.70
2023-04-19T06:25:05.869Z,9.05
2023-04-19T06:27:59.712Z,4.47
2023-04-19T06:31:29.117Z,5.43
2023-04-19T06:39:22.470Z,4.63
2023-04-19T06:56:04.596Z,8.90
2023-04-19T06:58:41.296Z,3.30
2023-04-19T07:01:09.394Z,4.65
2023-04-19T07:06:40.312Z,5.05
2023-04-19T07:09:08.819Z,7.30
2023-04-19T07:11:38.719Z,6.60
2023-04-19T07:14:10.501Z,5.30
2023-04-19T07:24:23.360Z,5.25
2023-04-19T07:27:14.871Z,5.43
2023-04-19T07:32:32.896Z,4.25
2023-04-19T07:34:59.894Z,6.43
2023-04-19T07:37:26.794Z,7.60
2023-04-19T07:39:53.680Z,6.35
2023-04-19T07:42:20.457Z,7.63
2023-04-19T07:44:49.489Z,5.95
2023-04-19T07:47:16.278Z,5.13
2023-04-19T07:49:44.691Z,5.78
2023-04-19T07:52:11.623Z,7.00
2023-04-19T07:54:39.750Z,6.82
2023-04-19T07:57:09.319Z,6.50
2023-04-19T07:59:36.145Z,6.60
2023-04-19T08:02:03.149Z,7.45
2023-04-19T08:04:30.318Z,6.03
2023-04-19T08:06:57.335Z,4.70
2023-04-19T08:09:26.641Z,9.48
2023-04-19T08:11:53.716Z,10.48
2023-04-19T08:14:34.537Z,5.32
2023-04-19T08:17:24.049Z,6.53
2023-04-19T08:19:52.529Z,5.22
2023-04-19T08:22:20.668Z,4.38
2023-04-19T08:24:52.189Z,8.88
2023-04-19T08:27:19.514Z,7.63
2023-04-19T08:29:47.452Z,8.13
2023-04-19T08:32:14.341Z,4.03
2023-04-19T08:34:41.253Z,7.57
2023-04-19T08:37:08.112Z,3.88
2023-04-19T08:39:35.476Z,4.18
2023-04-19T08:42:13.308Z,7.07
2023-04-19T08:45:25.467Z,4.93
2023-04-19T08:47:58.957Z,4.28
2023-04-19T08:50:34.404Z,4.30
2023-04-19T08:53:20.931Z,4.65
2023-04-19T08:56:06.892Z,6.03
2023-04-19T08:58:54.962Z,3.25
2023-04-19T09:04:07.363Z,3.85
2023-04-19T09:06:44.632Z,4.03
2023-04-19T09:11:56.712Z,3.63
2023-04-19T09:14:40.085Z,4.43
2023-04-19T09:17:18.301Z,3.97
2023-04-19T09:19:50.407Z,4.68
2023-04-19T09:22:27.412Z,3.05
2023-04-19T09:27:37.514Z,4.05
2023-04-19T09:30:07.289Z,6.20
2023-04-19T09:32:52.306Z,3.33
2023-04-19T09:38:06.967Z,2.80
2023-04-19T09:40:34.790Z,2.08
2023-04-19T09:43:23.139Z,1.75
2023-04-19T09:45:50.443Z,3.55
2023-04-19T09:48:20.771Z,1.90
2023-04-19T09:51:00.671Z,3.15
2023-04-19T09:53:35.155Z,2.90
2023-04-19T09:56:04.661Z,2.33
2023-04-19T09:58:46.341Z,3.50
2023-04-19T10:01:19.358Z,2.15
2023-04-19T10:03:50.372Z,2.47
2023-04-19T10:08:51.472Z,3.17
2023-04-19T10:11:22.302Z,0.98
2023-04-19T10:13:51.928Z,1.70
2023-04-19T10:16:20.398Z,3.50
2023-04-19T10:18:54.554Z,1.27
2023-04-19T10:21:22.365Z,1.58
2023-04-19T10:23:55.882Z,4.32
2023-04-19T10:26:32.164Z,1.40
2023-04-19T10:29:02.165Z,4.20
2023-04-19T10:31:52.589Z,3.75
2023-04-19T10:34:44.597Z,1.63
2023-04-19T10:37:12.224Z,1.80
2023-04-19T10:39:45.518Z,1.33
2023-04-19T10:42:14.722Z,1.80
2023-04-19T10:44:42.120Z,2.53
2023-04-19T10:47:14.663Z,3.00
2023-04-19T10:49:47.907Z,1.20
2023-04-19T10:52:29.914Z,0.95
2023-04-19T10:54:57.232Z,1.15
2023-04-19T10:57:25.587Z,1.40
2023-04-19T11:00:22.790Z,1.42
2023-04-19T11:03:03.198Z,5.32
2023-04-19T11:05:30.939Z,1.67
2023-04-19T11:07:58.135Z,1.98
2023-04-19T11:10:31.211Z,2.80
2023-04-19T11:12:58.731Z,3.30
2023-04-19T11:15:26.370Z,1.45
2023-04-19T11:18:08.775Z,2.50
2023-04-19T11:20:39.122Z,3.92
2023-04-19T11:26:14.869Z,2.22
2023-04-19T11:28:41.773Z,2.28
2023-04-19T11:31:08.724Z,1.13
2023-04-19T11:33:42.064Z,4.70
2023-04-19T11:36:15.110Z,0.50
2023-04-19T11:38:45.068Z,1.70
2023-04-19T11:41:14.956Z,0.52
2023-04-19T11:43:45.580Z,1.85
2023-04-19T11:46:13.930Z,1.27
2023-04-19T11:48:56.931Z,0.80
2023-04-19T11:51:23.947Z,0.77
2023-04-19T11:53:53.570Z,2.25
2023-04-19T11:56:20.500Z,1.08
2023-04-19T11:58:51.431Z,3.72
2023-04-19T12:01:22.435Z,0.30
2023-04-19T12:03:54.531Z,0.95
2023-04-19T12:06:27.493Z,2.53
2023-04-19T12:08:55.706Z,1.27
2023-04-19T12:11:41.802Z,0.98
2023-04-19T12:14:13.992Z,0.70
2023-04-19T12:16:41.833Z,1.75
2023-04-19T12:19:19.129Z,1.23
2023-04-19T12:21:47.204Z,0.90
2023-04-19T12:24:25.139Z,1.98
2023-04-19T12:27:06.218Z,0.50
2023-04-19T12:32:47.116Z,0.50
2023-04-19T12:35:14.042Z,0.70
2023-04-19T12:37:50.277Z,1.50
2023-04-19T12:40:18.768Z,1.05
2023-04-19T12:42:49.170Z,0.93
2023-04-19T12:45:19.470Z,2.28
2023-04-19T12:47:51.051Z,0.90
2023-04-19T12:50:18.380Z,0.82
2023-04-19T12:52:45.821Z,2.38
2023-04-19T12:55:12.905Z,1.27
2023-04-19T12:57:40.141Z,0.90
2023-04-19T13:00:07.762Z,1.23
2023-04-19T13:02:44.122Z,1.30
2023-04-19T13:15:59.563Z,1.95
2023-04-19T13:18:45.458Z,0.95
2023-04-19T13:21:12.840Z,5.45
2023-04-19T13:23:39.722Z,1.80
2023-04-19T13:26:18.319Z,0.68
2023-04-19T13:28:45.317Z,1.35
2023-04-19T13:31:12.358Z,0.75
2023-04-19T13:33:39.281Z,1.35
2023-04-19T13:36:06.661Z,0.57
2023-04-19T13:38:33.505Z,0.68
2023-04-19T13:41:01.112Z,0.40
2023-04-19T13:43:27.954Z,1.85
2023-04-19T13:45:54.626Z,0.90
2023-04-19T13:48:21.815Z,1.98
2023-04-19T13:50:50.957Z,0.68
2023-04-19T13:53:18.232Z,0.60
2023-04-19T13:55:45.190Z,0.45
2023-04-19T13:58:12.398Z,0.57
2023-04-19T14:00:39.695Z,2.33
2023-04-19T14:03:06.746Z,0.60
2023-04-19T14:05:33.721Z,0.68
2023-04-19T14:08:02.981Z,0.90
2023-04-19T14:10:30.003Z,0.93
2023-04-19T14:12:56.770Z,0.90
2023-04-19T14:15:24.278Z,2.22
2023-04-19T14:17:51.629Z,4.65
2023-04-19T14:20:18.969Z,1.33
2023-04-19T14:22:46.778Z,1.88
2023-04-19T14:25:23.649Z,1.58
2023-04-19T14:27:50.547Z,3.50
2023-04-19T14:30:17.576Z,3.67
2023-04-19T14:32:44.706Z,3.35
2023-04-19T14:35:12.172Z,1.38
2023-04-19T14:37:39.264Z,1.40
2023-04-19T14:40:09.553Z,1.73
2023-04-19T14:42:36.371Z,1.83
2023-04-19T14:45:03.475Z,2.20
2023-04-19T14:47:30.891Z,7.43
2023-04-19T14:49:57.747Z,3.40
2023-04-19T14:52:25.861Z,2.60
2023-04-19T14:54:52.991Z,3.20
2023-04-19T14:57:20.353Z,4.35
2023-04-19T14:59:49.741Z,4.93
2023-04-19T15:02:17.097Z,6.78
2023-04-19T15:04:44.003Z,7.43
2023-04-19T15:07:10.799Z,9.10
2023-04-19T15:09:37.921Z,8.10
2023-04-19T15:12:04.826Z,8.88
2023-04-19T15:14:31.618Z,10.13
2023-04-19T15:16:58.614Z,9.18
2023-04-19T15:19:28.015Z,7.72
2023-04-19T15:21:57.720Z,8.48
2023-04-19T15:24:27.053Z,11.77
2023-04-19T15:26:53.804Z,13.95
2023-04-19T15:29:20.602Z,9.75
2023-04-19T15:31:47.581Z,10.10
2023-04-19T15:34:14.329Z,10.95
2023-04-19T15:36:41.136Z,10.10
2023-04-19T15:39:08.068Z,11.10
2023-04-19T15:41:35.686Z,10.73
2023-04-19T15:44:02.366Z,11.45
2023-04-19T15:46:29.354Z,9.20
2023-04-19T15:48:57.394Z,9.95
2023-04-19T15:51:38.454Z,10.60
2023-04-19T15:54:07.322Z,10.88
2023-04-19T15:56:37.308Z,11.63
2023-04-19T15:59:04.072Z,10.73
2023-04-19T16:01:30.999Z,11.55
2023-04-19T16:06:39.614Z,12.15
2023-04-19T16:09:09.783Z,11.73
2023-04-19T16:11:52.456Z,11.55
2023-04-19T16:14:19.594Z,11.27
2023-04-19T16:16:46.310Z,9.80
2023-04-19T16:19:15.991Z,12.30
2023-04-19T16:21:46.316Z,11.40
2023-04-19T16:24:20.508Z,12.73
2023-04-19T16:26:48.665Z,12.35
2023-04-19T16:29:15.798Z,11.75
2023-04-19T16:31:42.758Z,11.93
2023-04-19T16:34:09.626Z,12.90
2023-04-19T16:36:36.643Z,13.98
2023-04-19T16:39:04.187Z,10.30
2023-04-19T16:41:31.214Z,13.32
2023-04-19T16:43:57.936Z,12.50
2023-04-19T16:46:27.658Z,15.32
2023-04-19T16:49:02.091Z,14.57
2023-04-19T16:51:31.365Z,15.23
2023-04-19T16:53:58.214Z,13.73
2023-04-19T16:56:29.258Z,15.77
2023-04-19T16:58:57.554Z,13.68
2023-04-19T17:01:24.333Z,14.23
2023-04-19T17:03:51.491Z,15.35
2023-04-19T17:06:18.579Z,18.60
2023-04-19T17:08:45.542Z,16.70
2023-04-19T17:11:12.405Z,14.00
2023-04-19T17:13:39.981Z,16.10
2023-04-19T17:16:07.427Z,11.00
2023-04-19T17:18:34.433Z,13.27
2023-04-19T17:21:01.417Z,20.83
2023-04-19T17:23:28.212Z,23.52
2023-04-19T17:25:58.423Z,20.13
2023-04-19T17:28:25.346Z,21.65
2023-04-19T17:30:52.318Z,20.25
2023-04-19T17:33:21.520Z,14.82
2023-04-19T17:35:48.258Z,14.95
2023-04-19T17:38:15.016Z,13.50
2023-04-19T17:40:42.094Z,13.07
2023-04-19T17:43:11.133Z,14.15
2023-04-19T17:45:38.100Z,11.25
2023-04-19T17:48:05.396Z,13.38
2023-04-19T17:50:38.611Z,11.93
2023-04-19T17:53:05.617Z,11.13
2023-04-19T17:55:33.216Z,10.98
2023-04-19T17:58:00.351Z,14.00
2023-04-19T18:00:27.432Z,19.08
2023-04-19T18:02:56.425Z,18.02
2023-04-19T18:05:30.722Z,15.73
2023-04-19T18:08:09.286Z,16.00
2023-04-19T18:10:38.122Z,13.80
2023-04-19T18:13:05.128Z,13.40
2023-04-19T18:15:31.919Z,11.90
2023-04-19T18:17:58.773Z,10.40
2023-04-19T18:20:25.830Z,10.88
2023-04-19T18:22:53.783Z,10.75
2023-04-19T18:25:23.306Z,11.35
2023-04-19T18:27:51.244Z,13.13
2023-04-19T18:30:18.341Z,9.73
2023-04-19T18:32:48.563Z,9.93
2023-04-19T18:35:15.514Z,12.25
2023-04-19T18:37:44.973Z,12.43
2023-04-19T18:40:12.643Z,10.13
2023-04-19T18:42:42.514Z,10.80
2023-04-19T18:45:15.061Z,11.30
2023-04-19T18:47:42.315Z,14.10
2023-04-19T18:50:15.992Z,11.27
2023-04-19T18:52:46.044Z,13.75
2023-04-19T18:55:13.966Z,12.27
2023-04-19T18:57:43.378Z,12.50
2023-04-19T19:00:11.705Z,10.35
2023-04-19T19:02:45.010Z,15.40
2023-04-19T19:05:14.122Z,12.43
2023-04-19T19:07:42.252Z,12.70
2023-04-19T19:10:19.122Z,9.38
2023-04-19T19:12:49.319Z,13.48
2023-04-19T19:15:16.990Z,10.93
2023-04-19T19:17:49.389Z,11.20
2023-04-19T19:20:17.065Z,10.90
2023-04-19T19:22:44.337Z,12.18
2023-04-19T19:25:12.146Z,11.85
2023-04-19T19:27:39.045Z,14.20
2023-04-19T19:30:07.988Z,10.27
2023-04-19T19:32:35.082Z,9.25
2023-04-19T19:35:07.374Z,11.80
2023-04-19T19:37:38.278Z,11.23
2023-04-19T19:40:11.095Z,9.63
2023-04-19T19:42:41.358Z,11.18
2023-04-19T19:45:09.538Z,10.05
2023-04-19T19:47:44.409Z,11.90
2023-04-19T19:51:01.083Z,12.82
2023-04-19T19:53:02.357Z,10.15
2023-04-19T19:55:31.102Z,9.35
2023-04-19T20:00:47.957Z,7.95
2023-04-19T20:03:28.808Z,7.53
2023-04-19T20:06:35.670Z,9.75
2023-04-19T20:08:57.141Z,9.75
2023-04-19T20:11:25.481Z,8.50
2023-04-19T20:13:52.805Z,14.38
2023-04-19T20:16:23.984Z,8.65
2023-04-19T20:18:55.147Z,13.07
2023-04-19T20:21:22.066Z,8.82
2023-04-19T20:26:43.388Z,7.13
2023-04-19T20:29:13.198Z,12.32
2023-04-19T20:31:46.582Z,10.35
2023-04-19T20:34:19.733Z,9.65
2023-04-19T20:36:54.580Z,8.23
2023-04-19T20:39:21.730Z,10.27
2023-04-19T20:41:54.495Z,9.70
2023-04-19T20:49:51.430Z,8.40
2023-04-19T20:52:18.646Z,8.55
2023-04-19T20:54:46.553Z,9.05
2023-04-19T20:57:16.264Z,7.57
2023-04-19T20:59:44.988Z,8.65
2023-04-19T21:02:12.213Z,8.05
2023-04-19T21:04:42.155Z,8.15
2023-04-19T21:07:36.099Z,10.65
2023-04-19T21:10:17.691Z,9.25
2023-04-19T21:12:46.356Z,8.93
2023-04-19T21:15:13.890Z,9.40
2023-04-19T21:17:41.461Z,8.02
2023-04-19T21:20:12.543Z,7.25
2023-04-19T21:22:45.486Z,8.43
2023-04-19T21:28:03.972Z,7.03
2023-04-19T21:35:59.503Z,9.93
2023-04-19T21:38:27.553Z,8.05
2023-04-19T21:40:54.504Z,8.38
2023-04-19T21:43:22.712Z,10.82
2023-04-19T21:45:49.538Z,6.28
2023-04-19T21:48:16.559Z,7.90
2023-04-19T21:50:43.256Z,7.85
2023-04-19T21:53:12.725Z,9.50
2023-04-19T21:55:39.468Z,9.23
2023-04-19T21:58:07.668Z,9.65
2023-04-19T22:00:50.000Z,9.15
2023-04-19T22:03:17.388Z,7.25
2023-04-19T22:05:48.857Z,9.52
2023-04-19T22:08:18.306Z,9.88
2023-04-19T22:13:31.779Z,8.93
2023-04-19T22:16:01.699Z,9.23
2023-04-19T22:18:38.240Z,9.52
2023-04-19T22:21:08.840Z,9.10
2023-04-19T22:23:36.553Z,10.25
2023-04-19T22:26:04.375Z,11.13
2023-04-19T22:28:31.475Z,9.23
2023-04-19T22:30:58.463Z,8.80
2023-04-19T22:33:28.175Z,8.25
2023-04-19T22:35:54.960Z,10.68
2023-04-19T22:38:22.140Z,9.27
2023-04-19T22:40:48.985Z,12.40
2023-04-19T22:43:16.525Z,10.63
2023-04-19T22:45:48.167Z,9.63
2023-04-19T22:48:15.543Z,9.98
2023-04-19T22:50:43.690Z,8.95
2023-04-19T22:53:13.323Z,7.65
2023-04-19T22:55:44.436Z,9.05
2023-04-19T22:58:17.058Z,8.27
2023-04-19T23:00:44.086Z,10.30
2023-04-19T23:03:11.199Z,10.02
2023-04-19T23:05:38.343Z,8.57
2023-04-19T23:08:05.420Z,9.32
2023-04-19T23:10:32.409Z,8.23
2023-04-19T23:12:59.676Z,10.23
2023-04-19T23:15:28.739Z,10.88
2023-04-19T23:17:56.232Z,11.52
2023-04-19T23:20:23.684Z,10.13
2023-04-19T23:22:50.666Z,9.93
2023-04-19T23:25:17.789Z,9.30
2023-04-19T23:27:44.969Z,7.45
2023-04-19T23:30:12.197Z,11.55
2023-04-19T23:32:39.248Z,9.38
2023-04-19T23:35:06.803Z,8.13
2023-04-19T23:37:33.662Z,9.32
2023-04-19T23:40:08.405Z,7.72
2023-04-19T23:42:36.996Z,12.77
2023-04-19T23:45:04.786Z,9.68
2023-04-19T23:47:31.824Z,10.55
2023-04-19T23:49:58.651Z,9.57
2023-04-19T23:52:27.812Z,8.20
2023-04-19T23:54:54.577Z,10.07
2023-04-19T23:57:21.576Z,10.48
2023-04-19T23:59:48.930Z,8.48
